Time;durP1;ratioP1;P1;durP2;ratioP2;P2;SDS_P1;SDS_P2;PMS_P1;PMS_P2;Temp;Humidity;BMP_temperature;BMP_pressure;BME280_temperature;BME280_humidity;BME280_pressure;Samples;Min_cycle;Max_cycle;Signal;HPM_P1;HPM_P2
2024/03/30 00:01:29;;;;;;;15.43;12.37;;;12.40;99.90;;;;;;5019133;28;20526;-67
2024/03/30 00:03:55;;;;;;;15.77;12.77;;;12.40;99.90;;;;;;5019118;28;20192;-67
2024/03/30 00:06:20;;;;;;;15.23;12.17;;;12.40;99.90;;;;;;5016199;28;20193;-66
2024/03/30 00:08:46;;;;;;;15.97;12.40;;;12.40;99.90;;;;;;5015695;28;20204;-67
2024/03/30 00:11:12;;;;;;;16.03;13.80;;;12.40;99.90;;;;;;5020794;28;20195;-67
2024/03/30 00:13:37;;;;;;;17.27;14.17;;;12.40;99.90;;;;;;5024610;28;20662;-67
2024/03/30 00:16:10;;;;;;;16.20;14.50;;;12.40;99.90;;;;;;5021930;28;20762;-67
2024/03/30 00:18:36;;;;;;;16.03;14.33;;;12.40;99.90;;;;;;5018540;28;20220;-67
2024/03/30 00:21:04;;;;;;;16.23;14.53;;;12.30;99.90;;;;;;5019480;28;20454;-67
2024/03/30 00:23:31;;;;;;;19.63;16.07;;;12.30;99.90;;;;;;5019851;28;20244;-65
2024/03/30 00:25:57;;;;;;;18.20;16.13;;;12.30;99.90;;;;;;5021683;28;20443;-66
2024/03/30 00:28:23;;;;;;;18.60;16.20;;;12.30;99.90;;;;;;5019020;28;20481;-66
2024/03/30 00:30:49;;;;;;;19.37;16.17;;;12.30;99.90;;;;;;5023705;28;20477;-67
2024/03/30 00:33:15;;;;;;;19.70;17.40;;;12.20;99.90;;;;;;5020390;28;20442;-66
2024/03/30 00:35:41;;;;;;;18.90;16.83;;;12.20;99.90;;;;;;5022463;28;20460;-66
2024/03/30 00:38:07;;;;;;;20.40;17.07;;;12.20;99.90;;;;;;5017613;28;20431;-67
2024/03/30 00:40:36;;;;;;;22.17;16.80;;;12.20;99.90;;;;;;5017834;28;20982;-67
2024/03/30 00:43:03;;;;;;;23.20;17.87;;;12.20;99.90;;;;;;5017934;28;20849;-67
2024/03/30 00:45:29;;;;;;;23.17;18.33;;;12.20;99.90;;;;;;5017587;28;20447;-67
2024/03/30 00:47:55;;;;;;;19.20;16.10;;;12.20;99.90;;;;;;5017354;28;20792;-67
2024/03/30 00:50:20;;;;;;;23.00;17.53;;;12.30;99.90;;;;;;5021033;28;20431;-66
2024/03/30 00:52:46;;;;;;;24.73;18.07;;;12.30;99.90;;;;;;5018762;28;20208;-67
2024/03/30 00:55:12;;;;;;;26.80;18.73;;;12.20;99.90;;;;;;5015895;28;20283;-67
2024/03/30 00:57:43;;;;;;;22.67;17.83;;;12.20;99.90;;;;;;5018463;28;20185;-67
2024/03/30 01:00:10;;;;;;;25.60;17.70;;;12.20;99.90;;;;;;5014936;28;20213;-66
2024/03/30 01:02:38;;;;;;;24.43;18.70;;;12.20;99.90;;;;;;5017660;28;20470;-66
2024/03/30 01:05:04;;;;;;;23.90;17.20;;;12.20;99.90;;;;;;5019043;28;20459;-67
2024/03/30 01:07:30;;;;;;;21.20;16.70;;;12.20;99.90;;;;;;5023831;28;20411;-67
2024/03/30 01:09:55;;;;;;;22.50;17.10;;;12.20;99.90;;;;;;5023706;28;20419;-67
2024/03/30 01:12:21;;;;;;;23.53;18.00;;;12.20;99.90;;;;;;5022561;28;20631;-67
2024/03/30 01:14:47;;;;;;;22.00;18.53;;;12.20;99.90;;;;;;5022102;28;20215;-66
2024/03/30 01:17:13;;;;;;;20.20;16.60;;;12.10;99.90;;;;;;5025854;28;20589;-67
2024/03/30 01:19:40;;;;;;;19.53;16.33;;;12.10;99.90;;;;;;5020537;28;20196;-67
2024/03/30 01:22:06;;;;;;;19.03;15.70;;;12.10;99.90;;;;;;5026297;28;20548;-67
2024/03/30 01:24:32;;;;;;;19.07;16.13;;;12.10;99.90;;;;;;5014690;28;20805;-67
2024/03/30 01:26:59;;;;;;;20.63;15.10;;;12.10;99.90;;;;;;5017731;28;20441;-67
2024/03/30 01:29:25;;;;;;;17.47;15.13;;;12.10;99.90;;;;;;5018417;28;20464;-67
2024/03/30 01:31:52;;;;;;;18.90;15.50;;;12.00;99.90;;;;;;5019418;28;20532;-67
2024/03/30 01:34:18;;;;;;;28.17;17.27;;;12.00;99.90;;;;;;5017165;28;20504;-67
2024/03/30 01:36:44;;;;;;;22.00;16.30;;;11.90;99.90;;;;;;5019745;28;20428;-67
2024/03/30 01:39:10;;;;;;;19.60;15.87;;;11.90;99.90;;;;;;5018180;28;21000;-67
2024/03/30 01:41:35;;;;;;;20.60;16.37;;;11.90;99.90;;;;;;5019852;28;20184;-67
2024/03/30 01:44:01;;;;;;;19.10;15.33;;;11.90;99.90;;;;;;5022986;28;20195;-67
2024/03/30 01:46:29;;;;;;;18.97;15.20;;;11.90;99.90;;;;;;5020524;28;20180;-67
2024/03/30 01:48:55;;;;;;;18.57;15.80;;;11.80;99.90;;;;;;5014319;28;20411;-66
2024/03/30 01:51:21;;;;;;;17.80;14.83;;;11.80;99.90;;;;;;5024786;28;20954;-67
2024/03/30 01:53:47;;;;;;;19.73;15.30;;;11.80;99.90;;;;;;5021923;28;20453;-67
2024/03/30 01:56:13;;;;;;;18.43;14.97;;;11.90;99.90;;;;;;5020150;28;20534;-67
2024/03/30 01:58:39;;;;;;;17.47;15.27;;;11.80;99.90;;;;;;5020705;28;20470;-67
2024/03/30 02:01:05;;;;;;;20.00;15.43;;;11.80;99.90;;;;;;5023040;28;20949;-67
2024/03/30 02:03:31;;;;;;;16.27;14.27;;;11.80;99.90;;;;;;5018363;28;20232;-67
2024/03/30 02:05:58;;;;;;;21.53;16.43;;;11.80;99.90;;;;;;5020073;28;20975;-67
2024/03/30 02:08:26;;;;;;;17.43;14.50;;;11.80;99.90;;;;;;5025786;28;20412;-67
2024/03/30 02:10:53;;;;;;;16.80;15.10;;;11.80;99.90;;;;;;5019676;28;20416;-67
2024/03/30 02:13:19;;;;;;;17.60;14.80;;;11.80;99.90;;;;;;5021502;28;20502;-67
2024/03/30 02:15:45;;;;;;;19.27;15.70;;;11.80;99.90;;;;;;5021295;28;21036;-67
2024/03/30 02:18:11;;;;;;;19.13;17.07;;;11.80;99.90;;;;;;5020494;28;20478;-67
2024/03/30 02:20:36;;;;;;;22.23;17.60;;;11.70;99.90;;;;;;5019951;28;20596;-67
2024/03/30 02:23:02;;;;;;;25.70;16.80;;;11.80;99.90;;;;;;5019177;28;20721;-68
2024/03/30 02:25:28;;;;;;;25.00;17.87;;;11.70;99.90;;;;;;5024182;28;20200;-67
2024/03/30 02:27:53;;;;;;;19.60;16.53;;;11.80;99.90;;;;;;5016991;28;20260;-67
2024/03/30 02:30:28;;;;;;;25.17;18.10;;;11.80;99.90;;;;;;5022453;28;20662;-67
2024/03/30 02:32:55;;;;;;;33.83;18.77;;;11.80;99.90;;;;;;5024507;28;20546;-67
2024/03/30 02:35:20;;;;;;;34.93;18.90;;;11.80;99.90;;;;;;5021861;28;20450;-67
2024/03/30 02:37:46;;;;;;;39.03;18.83;;;11.80;99.90;;;;;;5025062;28;20913;-67
2024/03/30 02:40:13;;;;;;;38.97;18.67;;;11.80;99.90;;;;;;5022684;28;20530;-67
2024/03/30 02:42:39;;;;;;;36.90;16.93;;;11.70;99.90;;;;;;5021700;28;20463;-67
2024/03/30 02:45:06;;;;;;;35.60;20.13;;;11.70;99.90;;;;;;5022454;28;20517;-67
2024/03/30 02:47:32;;;;;;;67.37;19.20;;;11.60;99.90;;;;;;5019610;28;20904;-67
2024/03/30 02:49:57;;;;;;;27.13;19.40;;;11.60;99.90;;;;;;5024195;28;20423;-67
2024/03/30 02:52:23;;;;;;;24.27;18.97;;;11.50;99.90;;;;;;5022193;28;20333;-67
2024/03/30 02:54:48;;;;;;;50.53;18.60;;;11.40;99.90;;;;;;5026836;28;20207;-67
2024/03/30 02:57:15;;;;;;;73.87;19.13;;;11.40;99.90;;;;;;5017528;28;20188;-67
2024/03/30 02:59:41;;;;;;;54.30;18.33;;;11.40;99.90;;;;;;5022098;28;20185;-67
2024/03/30 03:02:07;;;;;;;56.03;18.40;;;11.30;99.90;;;;;;5018427;28;21026;-67
2024/03/30 03:04:32;;;;;;;24.83;16.70;;;11.30;99.90;;;;;;5014837;28;20459;-67
2024/03/30 03:06:58;;;;;;;43.70;17.07;;;11.20;99.90;;;;;;5028693;28;20189;-67
2024/03/30 03:09:23;;;;;;;22.97;16.33;;;11.10;99.90;;;;;;5019573;28;20670;-66
2024/03/30 03:11:49;;;;;;;52.80;17.13;;;11.10;99.90;;;;;;5016810;28;20267;-67
2024/03/30 03:14:14;;;;;;;27.97;14.80;;;11.10;99.90;;;;;;5020929;28;20596;-67
2024/03/30 03:16:40;;;;;;;31.77;14.73;;;11.10;99.90;;;;;;5021797;28;20708;-67
2024/03/30 03:19:05;;;;;;;16.10;13.63;;;11.10;99.90;;;;;;5024278;28;20222;-67
2024/03/30 03:21:31;;;;;;;16.83;14.60;;;11.10;99.90;;;;;;5025409;28;20267;-67
2024/03/30 03:23:56;;;;;;;28.87;14.13;;;11.10;99.90;;;;;;5019334;28;20192;-66
2024/03/30 03:26:22;;;;;;;24.33;13.53;;;11.20;99.90;;;;;;5021190;28;20260;-66
2024/03/30 03:28:48;;;;;;;38.63;14.10;;;11.10;99.90;;;;;;5023727;28;20172;-66
2024/03/30 03:31:13;;;;;;;41.43;15.27;;;11.10;99.90;;;;;;5024751;28;20168;-66
2024/03/30 03:33:39;;;;;;;47.83;14.00;;;11.10;99.90;;;;;;5021261;28;20267;-66
2024/03/30 03:36:05;;;;;;;25.50;14.33;;;11.00;99.90;;;;;;5019965;28;20203;-66
2024/03/30 03:38:30;;;;;;;40.07;14.63;;;10.90;99.90;;;;;;5022304;28;20176;-67
2024/03/30 03:40:56;;;;;;;39.73;14.77;;;10.80;99.90;;;;;;5015903;28;20447;-67
2024/03/30 03:43:22;;;;;;;28.40;13.57;;;10.90;99.90;;;;;;5019946;28;20200;-67
2024/03/30 03:45:49;;;;;;;21.37;12.43;;;10.80;99.90;;;;;;5018095;28;20207;-67
2024/03/30 03:48:14;;;;;;;24.83;11.87;;;10.80;99.90;;;;;;5022791;28;20423;-67
2024/03/30 03:50:41;;;;;;;41.43;11.00;;;10.70;99.90;;;;;;5020252;28;20423;-67
2024/03/30 03:53:07;;;;;;;19.40;10.60;;;10.70;99.90;;;;;;5022767;28;20369;-67
2024/03/30 03:55:33;;;;;;;23.43;9.97;;;10.70;99.90;;;;;;5020626;28;20505;-67
2024/03/30 03:58:00;;;;;;;40.90;10.00;;;10.70;99.90;;;;;;5015150;28;20470;-67
2024/03/30 04:00:25;;;;;;;11.53;9.50;;;10.80;99.90;;;;;;5018390;28;20858;-66
2024/03/30 04:02:51;;;;;;;26.20;10.40;;;10.60;99.90;;;;;;5019118;28;20542;-66
2024/03/30 04:05:17;;;;;;;38.47;10.30;;;10.60;99.90;;;;;;5019875;28;20197;-67
2024/03/30 04:07:42;;;;;;;30.67;10.10;;;10.60;99.90;;;;;;5023459;28;20180;-67
2024/03/30 04:10:09;;;;;;;47.67;10.53;;;10.50;99.90;;;;;;5021140;28;20709;-67
2024/03/30 04:12:35;;;;;;;40.10;9.10;;;10.50;99.90;;;;;;5020369;28;20173;-67
2024/03/30 04:15:01;;;;;;;33.83;11.43;;;10.50;99.90;;;;;;5020242;28;20875;-68
2024/03/30 04:17:26;;;;;;;76.13;12.10;;;10.50;99.90;;;;;;5020894;28;20188;-66
2024/03/30 04:19:52;;;;;;;33.63;9.20;;;10.50;99.90;;;;;;5021491;28;20262;-67
2024/03/30 04:22:18;;;;;;;60.60;8.20;;;10.40;99.90;;;;;;5023787;28;20235;-66
2024/03/30 04:24:43;;;;;;;18.80;7.30;;;10.20;99.90;;;;;;5018699;28;20196;-67
2024/03/30 04:27:09;;;;;;;19.40;6.33;;;10.10;99.90;;;;;;5016979;28;20200;-67
2024/03/30 04:29:34;;;;;;;11.70;7.00;;;10.10;99.90;;;;;;5016997;28;20177;-67
2024/03/30 04:32:00;;;;;;;17.03;7.70;;;10.00;99.90;;;;;;5019245;28;20185;-67
2024/03/30 04:34:25;;;;;;;14.40;7.30;;;10.00;99.90;;;;;;5023794;28;20577;-67
2024/03/30 04:36:51;;;;;;;10.87;7.77;;;9.90;99.90;;;;;;5021789;28;20315;-67
2024/03/30 04:39:17;;;;;;;23.37;9.57;;;10.00;99.90;;;;;;5022613;28;20191;-67
2024/03/30 04:41:42;;;;;;;41.83;9.27;;;10.10;99.90;;;;;;5024343;28;20180;-67
2024/03/30 04:44:09;;;;;;;16.67;9.10;;;10.10;99.90;;;;;;5025274;28;20901;-67
2024/03/30 04:46:34;;;;;;;41.70;10.80;;;10.00;99.90;;;;;;5023046;28;20642;-67
2024/03/30 04:49:00;;;;;;;22.70;9.73;;;10.10;99.90;;;;;;5018456;28;20438;-67
2024/03/30 04:51:26;;;;;;;62.50;12.80;;;10.20;99.90;;;;;;5026314;28;20264;-67
2024/03/30 04:53:51;;;;;;;40.50;10.00;;;10.10;99.90;;;;;;5027943;28;20291;-67
2024/03/30 04:56:17;;;;;;;37.07;11.13;;;10.10;99.90;;;;;;5021767;28;20185;-67
2024/03/30 04:58:43;;;;;;;67.50;13.77;;;10.10;99.90;;;;;;5023287;28;20185;-67
2024/03/30 05:01:10;;;;;;;27.23;13.07;;;10.20;99.90;;;;;;5024781;28;20850;-66
2024/03/30 05:03:37;;;;;;;31.80;11.30;;;10.20;99.90;;;;;;5018243;28;20292;-66
2024/03/30 05:06:04;;;;;;;30.87;12.73;;;10.20;99.90;;;;;;5022201;28;20459;-67
2024/03/30 05:08:30;;;;;;;45.80;12.00;;;10.20;99.90;;;;;;5022403;28;20480;-68
2024/03/30 05:10:56;;;;;;;52.40;13.67;;;10.20;99.90;;;;;;5023375;28;20408;-68
2024/03/30 05:13:22;;;;;;;31.50;14.03;;;10.30;99.90;;;;;;5025025;28;20457;-68
2024/03/30 05:15:49;;;;;;;42.37;12.30;;;10.40;99.90;;;;;;5028547;28;20863;-68
2024/03/30 05:18:16;;;;;;;49.13;14.60;;;10.40;99.90;;;;;;5029021;28;20442;-67
2024/03/30 05:20:48;;;;;;;54.27;12.50;;;10.40;99.90;;;;;;5023300;28;20510;-67
2024/03/30 05:23:15;;;;;;;39.60;12.10;;;10.40;99.90;;;;;;5024487;28;20554;-68
2024/03/30 05:25:41;;;;;;;20.20;11.17;;;10.40;99.90;;;;;;5018586;28;20510;-67
2024/03/30 05:28:07;;;;;;;61.20;11.97;;;10.40;99.90;;;;;;5025298;28;20812;-66
2024/03/30 05:30:32;;;;;;;33.40;12.47;;;10.40;99.90;;;;;;5024672;28;20177;-67
2024/03/30 05:32:58;;;;;;;23.67;10.90;;;10.40;99.90;;;;;;5023897;28;20199;-67
2024/03/30 05:35:23;;;;;;;33.60;12.53;;;10.50;99.90;;;;;;5020750;28;20246;-67
2024/03/30 05:37:49;;;;;;;46.90;13.67;;;10.60;99.90;;;;;;5023083;28;20550;-67
2024/03/30 05:40:15;;;;;;;115.67;13.00;;;10.70;99.90;;;;;;5023500;28;20181;-67
2024/03/30 05:42:40;;;;;;;22.40;10.93;;;10.70;99.90;;;;;;5023212;28;20212;-68
2024/03/30 05:45:06;;;;;;;57.43;10.90;;;10.70;99.90;;;;;;5023952;28;20200;-67
2024/03/30 05:47:32;;;;;;;36.27;10.83;;;10.70;99.90;;;;;;5025431;28;20299;-67
2024/03/30 05:49:57;;;;;;;40.03;10.93;;;10.80;99.90;;;;;;5022183;28;20639;-67
2024/03/30 05:52:23;;;;;;;30.97;12.17;;;10.80;99.90;;;;;;5022214;28;20185;-67
2024/03/30 05:54:48;;;;;;;24.70;12.37;;;10.90;99.90;;;;;;5022524;28;20255;-67
2024/03/30 05:57:14;;;;;;;20.30;10.97;;;10.90;99.90;;;;;;5020803;28;20176;-67
2024/03/30 05:59:40;;;;;;;20.20;10.23;;;10.90;99.90;;;;;;5021836;28;20192;-67
2024/03/30 06:02:05;;;;;;;23.17;12.80;;;10.90;99.90;;;;;;5017178;28;20583;-67
2024/03/30 06:04:31;;;;;;;33.33;12.60;;;11.00;99.90;;;;;;5018488;28;20293;-67
2024/03/30 06:06:57;;;;;;;22.07;10.90;;;11.00;99.90;;;;;;5027896;28;20196;-67
2024/03/30 06:09:23;;;;;;;19.40;10.60;;;11.10;99.90;;;;;;5023226;28;20226;-67
2024/03/30 06:11:48;;;;;;;19.67;11.03;;;11.10;99.90;;;;;;5025155;28;20415;-67
2024/03/30 06:14:14;;;;;;;20.90;10.63;;;11.10;99.90;;;;;;5022749;28;20592;-67
2024/03/30 06:16:39;;;;;;;22.20;11.70;;;11.20;99.90;;;;;;5017519;28;20180;-67
2024/03/30 06:19:05;;;;;;;20.67;12.70;;;11.20;99.90;;;;;;5019686;28;20208;-67
2024/03/30 06:21:31;;;;;;;24.37;11.83;;;11.20;99.90;;;;;;5021364;28;20187;-67
2024/03/30 06:23:56;;;;;;;19.80;10.37;;;11.30;99.90;;;;;;5019781;28;20261;-67
2024/03/30 06:26:22;;;;;;;18.03;10.93;;;11.30;99.90;;;;;;5021929;28;20184;-67
2024/03/30 06:28:47;;;;;;;22.40;12.10;;;11.30;99.90;;;;;;5021995;28;20185;-67
2024/03/30 06:31:13;;;;;;;19.60;10.93;;;11.20;99.90;;;;;;5022285;28;20320;-67
2024/03/30 06:33:38;;;;;;;27.23;12.17;;;11.20;99.90;;;;;;5020861;28;20188;-67
2024/03/30 06:36:04;;;;;;;25.77;12.93;;;11.30;99.90;;;;;;5017899;28;20299;-67
2024/03/30 06:38:30;;;;;;;19.10;10.60;;;11.30;99.90;;;;;;5021122;28;20196;-68
2024/03/30 06:43:43;;;;;;;21.93;10.17;;;11.30;99.90;;;;;;5021729;28;20219;-67
2024/03/30 06:46:09;;;;;;;18.53;11.30;;;11.30;99.90;;;;;;5020353;28;20474;-67
2024/03/30 06:48:35;;;;;;;18.57;10.57;;;11.40;99.90;;;;;;5019869;28;20415;-67
2024/03/30 06:51:00;;;;;;;18.30;10.80;;;11.40;99.90;;;;;;5020090;28;20484;-67
2024/03/30 06:53:26;;;;;;;21.03;13.70;;;11.40;99.90;;;;;;5021908;28;20173;-67
2024/03/30 06:55:52;;;;;;;16.33;10.43;;;11.40;99.90;;;;;;5024396;28;20691;-68
2024/03/30 06:58:17;;;;;;;19.30;10.80;;;11.40;99.90;;;;;;5023516;28;20299;-68
2024/03/30 07:00:43;;;;;;;14.63;9.90;;;11.40;99.90;;;;;;5020248;28;20191;-66
2024/03/30 07:03:09;;;;;;;14.63;10.10;;;11.50;99.90;;;;;;5016797;28;20216;-67
2024/03/30 07:05:35;;;;;;;14.67;10.07;;;11.50;99.90;;;;;;5020809;28;20525;-67
2024/03/30 07:08:01;;;;;;;16.10;10.67;;;11.50;99.90;;;;;;5019118;28;20461;-68
2024/03/30 07:10:27;;;;;;;16.63;11.43;;;11.50;99.90;;;;;;5019265;28;20215;-68
2024/03/30 07:12:54;;;;;;;18.40;11.50;;;11.50;99.90;;;;;;5021205;28;20473;-68
2024/03/30 07:15:20;;;;;;;14.33;10.50;;;11.50;99.90;;;;;;5023246;28;20740;-67
2024/03/30 07:17:46;;;;;;;17.33;11.10;;;11.50;99.90;;;;;;5019550;28;20760;-68
2024/03/30 07:20:12;;;;;;;16.57;11.67;;;11.50;99.90;;;;;;5022555;28;20411;-67
2024/03/30 07:22:37;;;;;;;15.03;10.50;;;11.50;99.90;;;;;;5021850;28;20200;-67
2024/03/30 07:25:04;;;;;;;16.53;10.70;;;11.50;99.90;;;;;;5017514;28;20238;-67
2024/03/30 07:27:30;;;;;;;18.50;11.93;;;11.50;99.90;;;;;;5024926;28;20180;-68
2024/03/30 07:29:55;;;;;;;19.60;10.47;;;11.50;99.90;;;;;;5019060;28;20443;-68
2024/03/30 07:32:21;;;;;;;21.30;12.13;;;11.60;99.90;;;;;;5024504;28;20183;-67
2024/03/30 07:34:47;;;;;;;18.43;12.07;;;11.60;99.90;;;;;;5017726;28;20305;-67
2024/03/30 07:37:13;;;;;;;16.67;11.77;;;11.70;99.90;;;;;;5019893;28;20181;-67
2024/03/30 07:39:40;;;;;;;14.03;10.70;;;11.70;99.90;;;;;;5017169;28;20439;-67
2024/03/30 07:42:07;;;;;;;15.97;11.17;;;11.70;99.90;;;;;;5020455;28;20467;-67
2024/03/30 07:44:36;;;;;;;14.07;10.50;;;11.70;99.90;;;;;;5021017;28;20445;-67
2024/03/30 07:47:07;;;;;;;16.33;10.10;;;11.70;99.90;;;;;;5019704;28;20432;-67
2024/03/30 07:49:33;;;;;;;15.77;9.77;;;11.80;99.90;;;;;;5022212;28;20949;-67
2024/03/30 07:52:01;;;;;;;16.20;9.97;;;11.90;99.90;;;;;;5020421;28;20428;-67
2024/03/30 07:54:27;;;;;;;12.93;9.50;;;11.90;99.90;;;;;;5018731;28;20528;-67
2024/03/30 07:56:56;;;;;;;13.67;9.73;;;12.00;99.90;;;;;;5024908;28;20509;-67
2024/03/30 07:59:23;;;;;;;12.50;9.77;;;12.10;99.90;;;;;;5019613;28;20419;-67
2024/03/30 08:01:49;;;;;;;12.43;9.07;;;12.10;99.90;;;;;;5016200;28;20424;-67
2024/03/30 08:04:15;;;;;;;11.70;9.03;;;12.20;99.90;;;;;;5020687;28;20961;-66
2024/03/30 08:06:45;;;;;;;13.47;9.00;;;12.20;99.90;;;;;;5020336;28;20522;-67
2024/03/30 08:09:12;;;;;;;12.33;9.30;;;12.20;99.90;;;;;;5020099;28;20419;-67
2024/03/30 08:11:41;;;;;;;10.23;8.30;;;12.30;99.90;;;;;;5022717;28;20893;-67
2024/03/30 08:14:10;;;;;;;12.77;9.13;;;12.30;99.90;;;;;;5019556;28;20962;-67
2024/03/30 08:16:37;;;;;;;15.23;8.80;;;12.30;99.90;;;;;;5025210;28;20522;-67
2024/03/30 08:19:08;;;;;;;14.90;9.40;;;12.40;99.90;;;;;;5025945;28;22506;-68
2024/03/30 08:21:34;;;;;;;16.40;9.60;;;12.40;99.90;;;;;;5029884;28;20472;-67
2024/03/30 08:24:00;;;;;;;15.13;10.37;;;12.40;99.90;;;;;;5023577;28;20552;-65
2024/03/30 08:26:25;;;;;;;12.70;8.70;;;12.40;99.90;;;;;;5025808;28;20189;-66
2024/03/30 08:28:51;;;;;;;12.63;9.03;;;12.40;99.90;;;;;;5023123;28;20224;-67
2024/03/30 08:31:17;;;;;;;13.47;9.37;;;12.40;99.90;;;;;;5028496;28;20245;-67
2024/03/30 08:33:43;;;;;;;11.57;9.27;;;12.40;99.90;;;;;;5021204;28;20246;-67
2024/03/30 08:36:09;;;;;;;12.40;9.67;;;12.50;99.90;;;;;;5023769;28;20435;-68
2024/03/30 08:38:35;;;;;;;11.00;8.57;;;12.50;99.90;;;;;;5026087;28;20206;-67
2024/03/30 08:41:01;;;;;;;12.37;8.73;;;12.50;99.90;;;;;;5027160;28;20431;-67
2024/03/30 08:43:26;;;;;;;11.63;9.17;;;12.50;99.90;;;;;;5026359;28;20857;-67
2024/03/30 08:45:53;;;;;;;11.10;8.50;;;12.60;99.90;;;;;;5022712;28;20202;-67
2024/03/30 08:48:19;;;;;;;13.20;8.70;;;12.60;99.90;;;;;;5024100;28;20222;-67
2024/03/30 08:50:45;;;;;;;12.40;8.33;;;12.60;99.90;;;;;;5020882;28;20924;-67
2024/03/30 08:53:10;;;;;;;12.00;8.90;;;12.60;99.90;;;;;;5020657;28;20222;-67
2024/03/30 08:55:37;;;;;;;13.77;9.67;;;12.70;99.90;;;;;;5027091;28;20290;-67
2024/03/30 08:58:06;;;;;;;19.00;10.07;;;12.70;99.90;;;;;;5025295;28;20267;-67
2024/03/30 09:00:33;;;;;;;13.13;9.20;;;12.70;99.90;;;;;;5024948;28;20492;-67
2024/03/30 09:02:58;;;;;;;11.70;8.80;;;12.80;99.90;;;;;;5020374;28;21250;-67
2024/03/30 09:05:26;;;;;;;12.70;8.70;;;12.80;99.90;;;;;;5027009;28;20457;-67
2024/03/30 09:07:52;;;;;;;12.63;8.00;;;12.80;99.90;;;;;;5023727;28;20256;-67
2024/03/30 09:10:19;;;;;;;10.90;8.67;;;12.90;99.90;;;;;;5024109;28;20526;-67
2024/03/30 09:12:44;;;;;;;10.13;7.50;;;13.00;99.90;;;;;;5025679;28;20419;-67
2024/03/30 09:15:10;;;;;;;13.40;8.37;;;13.10;99.90;;;;;;5024234;28;20530;-67
2024/03/30 09:17:36;;;;;;;9.80;7.60;;;13.20;99.90;;;;;;5026620;28;20449;-67
2024/03/30 09:20:01;;;;;;;9.63;7.50;;;13.30;99.90;;;;;;5021929;28;20696;-67
2024/03/30 09:22:27;;;;;;;11.27;8.00;;;13.40;99.90;;;;;;5026016;28;20258;-67
2024/03/30 09:24:54;;;;;;;9.17;7.47;;;13.40;99.90;;;;;;5020023;28;20192;-67
2024/03/30 09:27:20;;;;;;;11.40;8.73;;;13.50;99.90;;;;;;5022934;28;20227;-67
2024/03/30 09:29:46;;;;;;;10.33;8.90;;;13.40;99.90;;;;;;5023399;28;20435;-66
2024/03/30 09:32:11;;;;;;;12.93;10.10;;;13.40;99.90;;;;;;5023381;28;20514;-67
2024/03/30 09:34:37;;;;;;;9.43;7.70;;;13.40;99.90;;;;;;5024590;28;20972;-66
2024/03/30 09:37:07;;;;;;;11.87;8.20;;;13.40;99.90;;;;;;5022561;28;20239;-66
2024/03/30 09:39:35;;;;;;;11.37;7.30;;;13.50;99.90;;;;;;5021392;28;20260;-66
2024/03/30 09:42:06;;;;;;;20.80;7.00;;;13.60;99.90;;;;;;5020495;28;20466;-66
2024/03/30 09:44:36;;;;;;;14.50;8.00;;;13.70;99.90;;;;;;5020507;28;20448;-66
2024/03/30 09:47:06;;;;;;;12.40;7.77;;;13.80;99.90;;;;;;5015232;28;20832;-68
2024/03/30 09:49:33;;;;;;;14.40;7.63;;;13.90;99.90;;;;;;5018938;28;20416;-67
2024/03/30 09:52:04;;;;;;;10.70;8.30;;;14.00;99.90;;;;;;5022997;28;20465;-66
2024/03/30 09:54:31;;;;;;;14.77;7.90;;;14.00;99.90;;;;;;5019511;28;20589;-66
2024/03/30 09:57:01;;;;;;;13.37;8.50;;;14.10;99.90;;;;;;5021346;28;20529;-66
2024/03/30 09:59:27;;;;;;;11.90;8.90;;;13.90;99.90;;;;;;5019347;28;20435;-66
2024/03/30 10:01:53;;;;;;;16.67;8.50;;;13.80;99.90;;;;;;5019652;28;20471;-67
2024/03/30 10:04:18;;;;;;;13.50;8.03;;;13.70;99.90;;;;;;5020821;28;20968;-67
2024/03/30 10:06:51;;;;;;;15.63;9.77;;;13.80;99.90;;;;;;5021592;28;20177;-66
2024/03/30 10:09:19;;;;;;;13.97;8.73;;;13.60;99.90;;;;;;5023385;28;20561;-67
2024/03/30 10:11:49;;;;;;;16.10;9.00;;;13.60;99.90;;;;;;5021015;28;20939;-67
2024/03/30 10:14:26;;;;;;;11.90;9.03;;;13.50;99.90;;;;;;5016868;28;20462;-66
2024/03/30 10:16:52;;;;;;;12.30;8.47;;;13.60;99.90;;;;;;5019848;28;20439;-66
2024/03/30 10:19:20;;;;;;;12.10;8.80;;;13.60;99.90;;;;;;5023668;28;20423;-66
2024/03/30 10:21:45;;;;;;;16.90;10.20;;;13.60;99.90;;;;;;5019484;28;20439;-66
2024/03/30 10:24:16;;;;;;;17.43;9.43;;;13.60;99.90;;;;;;5019434;28;20427;-67
2024/03/30 10:26:42;;;;;;;16.20;10.00;;;13.70;99.90;;;;;;5019256;28;20673;-66
2024/03/30 10:29:09;;;;;;;15.83;11.00;;;13.70;99.90;;;;;;5020432;28;20419;-67
2024/03/30 10:31:36;;;;;;;20.03;12.53;;;13.60;99.90;;;;;;5021808;28;20856;-67
2024/03/30 10:34:02;;;;;;;16.70;11.67;;;13.40;99.90;;;;;;5023270;28;20568;-67
2024/03/30 10:36:28;;;;;;;14.90;11.50;;;13.40;99.90;;;;;;5021873;28;20898;-66
2024/03/30 10:38:56;;;;;;;14.67;11.37;;;13.30;99.90;;;;;;5022999;28;20411;-67
2024/03/30 10:41:26;;;;;;;19.10;13.07;;;13.40;99.90;;;;;;5019285;28;20172;-66
2024/03/30 10:43:51;;;;;;;18.10;13.43;;;13.40;99.90;;;;;;5021776;28;21046;-66
2024/03/30 10:46:17;;;;;;;18.60;13.57;;;13.40;99.90;;;;;;5020774;28;20414;-66
2024/03/30 10:48:42;;;;;;;18.07;13.63;;;13.60;99.90;;;;;;5038119;28;20188;-66
2024/03/30 10:51:08;;;;;;;16.90;12.63;;;13.50;99.90;;;;;;5027231;28;20191;-66
2024/03/30 10:53:34;;;;;;;19.57;12.93;;;13.40;99.90;;;;;;5023951;28;20235;-66
2024/03/30 10:56:00;;;;;;;19.73;13.83;;;13.40;99.90;;;;;;5020274;28;20207;-66
2024/03/30 10:58:26;;;;;;;20.17;15.00;;;13.30;99.90;;;;;;5020207;28;20204;-66
2024/03/30 11:00:54;;;;;;;20.63;14.53;;;13.30;99.90;;;;;;5018836;28;20422;-66
2024/03/30 11:03:20;;;;;;;17.97;14.63;;;13.20;99.90;;;;;;5018274;28;20241;-66
2024/03/30 11:05:47;;;;;;;19.57;15.30;;;13.20;99.90;;;;;;5020398;28;20444;-66
2024/03/30 11:08:13;;;;;;;21.40;17.00;;;13.30;99.90;;;;;;5003483;28;20527;-67
2024/03/30 11:10:39;;;;;;;18.37;15.60;;;13.30;99.90;;;;;;5022749;28;20949;-66
2024/03/30 11:13:05;;;;;;;20.60;16.33;;;13.30;99.90;;;;;;5017872;28;20439;-67
2024/03/30 11:15:40;;;;;;;19.63;16.20;;;13.30;99.90;;;;;;5019872;28;20451;-67
2024/03/30 11:18:12;;;;;;;19.53;15.07;;;13.10;99.90;;;;;;5019308;28;20224;-66
2024/03/30 11:21:02;;;;;;;18.00;13.80;;;12.90;99.90;;;;;;5015362;28;20431;-67
2024/03/30 11:23:49;;;;;;;22.53;15.80;;;12.80;99.90;;;;;;5020342;28;20849;-68
2024/03/30 11:26:17;;;;;;;19.70;14.20;;;12.80;99.90;;;;;;5020738;28;20496;-68
2024/03/30 11:28:53;;;;;;;17.20;13.80;;;13.00;99.90;;;;;;5021699;28;20541;-68
2024/03/30 11:31:47;;;;;;;19.87;14.77;;;13.00;99.90;;;;;;5014531;28;20956;-68
2024/03/30 11:34:22;;;;;;;16.47;13.73;;;12.90;99.90;;;;;;5016701;28;20461;-68
2024/03/30 11:37:21;;;;;;;21.10;14.90;;;12.90;99.90;;;;;;5017766;28;20554;-69
2024/03/30 11:39:51;;;;;;;19.37;14.23;;;12.90;99.90;;;;;;5019692;28;20503;-69
2024/03/30 11:42:27;;;;;;;16.90;14.00;;;12.90;99.90;;;;;;5017031;28;20838;-69
2024/03/30 11:44:53;;;;;;;22.60;14.17;;;12.90;99.90;;;;;;5015567;28;20466;-68
2024/03/30 11:47:19;;;;;;;18.60;13.53;;;12.90;99.90;;;;;;5016541;28;20496;-68
2024/03/30 11:49:45;;;;;;;20.40;14.17;;;12.90;99.90;;;;;;5020452;28;20470;-69
2024/03/30 11:52:11;;;;;;;18.47;14.60;;;13.10;99.90;;;;;;5020036;28;20184;-69
2024/03/30 11:54:36;;;;;;;15.60;11.87;;;13.20;99.90;;;;;;5019022;28;20232;-69
2024/03/30 11:57:12;;;;;;;16.40;13.40;;;13.10;99.90;;;;;;5013293;28;20326;-69
2024/03/30 11:59:39;;;;;;;22.40;15.40;;;13.20;99.90;;;;;;5019902;28;20196;-69
2024/03/30 12:02:25;;;;;;;20.70;14.23;;;13.40;99.90;;;;;;5023284;28;20532;-69
2024/03/30 12:04:51;;;;;;;19.87;14.43;;;13.50;99.90;;;;;;5023874;28;20439;-69
2024/03/30 12:07:19;;;;;;;18.30;13.70;;;13.60;99.90;;;;;;5019892;28;20828;-69
2024/03/30 12:09:48;;;;;;;17.70;14.00;;;13.70;99.90;;;;;;5021458;28;20346;-69
2024/03/30 12:12:20;;;;;;;18.80;13.53;;;13.70;99.90;;;;;;5019248;28;20504;-69
2024/03/30 12:14:46;;;;;;;24.20;15.00;;;13.80;99.90;;;;;;5020589;28;20448;-70
2024/03/30 12:17:12;;;;;;;23.03;14.63;;;13.90;99.90;;;;;;5015221;28;20439;-69
2024/03/30 12:19:40;;;;;;;19.40;14.23;;;13.80;99.90;;;;;;5015664;28;21015;-69
2024/03/30 12:22:06;;;;;;;17.73;13.60;;;13.80;99.90;;;;;;5019464;28;20513;-69
2024/03/30 12:24:35;;;;;;;24.53;15.77;;;13.70;99.90;;;;;;5014291;28;20486;-69
2024/03/30 12:27:00;;;;;;;20.97;15.87;;;13.60;99.90;;;;;;5013110;28;20442;-69
2024/03/30 12:29:26;;;;;;;20.43;14.73;;;13.60;99.90;;;;;;5017236;28;20431;-70
2024/03/30 12:31:52;;;;;;;18.00;12.83;;;13.80;99.90;;;;;;5019869;28;20189;-70